SWA1792 KDEN-KBNA
Flight info
| Callsign | SWA1792 |
|---|---|
| Flight time | N/A |
| Altitude | 37000 |
| Route | EPKEE7 GAETR DCT BUM DCT NMANN RYYMN3 |
| Aircraft | B38M/M-VGDW/C |
Departure
| Time | N/A |
|---|---|
| Airport | Denver International Airport (KDEN) |
Arrival
| Time | 2026-05-06 02:18 |
|---|---|
| Airport | Nashville International Airport (KBNA) |
| Time | Latitude | Longitude | Altitude | Speed | Heading |
|---|---|---|---|---|---|
| 2026-05-06 01:36 | 37.87466 | -91.70057 | 36926 ft | 577 kts | 105° |
| 2026-05-06 01:36 | 37.86689 | -91.65066 | 36924 ft | 577 kts | 105° |
| 2026-05-06 01:37 | 37.85132 | -91.55111 | 36922 ft | 577 kts | 105° |
| 2026-05-06 01:37 | 37.83571 | -91.45183 | 36924 ft | 576 kts | 105° |
| 2026-05-06 01:38 | 37.81999 | -91.35249 | 36917 ft | 576 kts | 105° |
| 2026-05-06 01:38 | 37.80418 | -91.25312 | 36915 ft | 576 kts | 105° |
| 2026-05-06 01:39 | 37.78833 | -91.15403 | 36918 ft | 576 kts | 105° |
| 2026-05-06 01:39 | 37.77236 | -91.05476 | 36913 ft | 577 kts | 105° |
| 2026-05-06 01:40 | 37.75627 | -90.95538 | 36919 ft | 577 kts | 105° |
| 2026-05-06 01:40 | 37.74016 | -90.85638 | 36915 ft | 576 kts | 105° |
| 2026-05-06 01:41 | 37.72392 | -90.75710 | 36914 ft | 576 kts | 105° |
| 2026-05-06 01:41 | 37.70761 | -90.65794 | 36875 ft | 577 kts | 105° |
| 2026-05-06 01:42 | 37.69124 | -90.55904 | 36922 ft | 576 kts | 105° |
| 2026-05-06 01:42 | 37.67477 | -90.46005 | 36918 ft | 575 kts | 105° |
| 2026-05-06 01:43 | 37.65825 | -90.36129 | 36901 ft | 576 kts | 105° |
| 2026-05-06 01:43 | 37.64178 | -90.26339 | 36915 ft | 573 kts | 105° |
| 2026-05-06 01:44 | 37.62518 | -90.16523 | 36917 ft | 573 kts | 105° |
| 2026-05-06 01:44 | 37.60847 | -90.06695 | 36908 ft | 573 kts | 105° |
| 2026-05-06 01:45 | 37.59169 | -89.96865 | 36894 ft | 573 kts | 105° |
| 2026-05-06 01:45 | 37.58332 | -89.91989 | 36791 ft | 567 kts | 105° |
| 2026-05-06 01:45 | 37.57494 | -89.87123 | 36040 ft | 568 kts | 105° |
| 2026-05-06 01:46 | 37.56656 | -89.82253 | 35386 ft | 568 kts | 105° |
| 2026-05-06 01:46 | 37.55825 | -89.77442 | 34753 ft | 567 kts | 105° |
| 2026-05-06 01:46 | 37.54974 | -89.72523 | 34110 ft | 567 kts | 105° |
| 2026-05-06 01:46 | 37.54134 | -89.67683 | 33407 ft | 566 kts | 105° |
| 2026-05-06 01:47 | 37.53310 | -89.62944 | 32984 ft | 560 kts | 105° |
| 2026-05-06 01:47 | 37.52472 | -89.58137 | 32897 ft | 564 kts | 105° |
| 2026-05-06 01:47 | 37.50777 | -89.48452 | 32898 ft | 566 kts | 105° |
| 2026-05-06 01:48 | 37.49097 | -89.38766 | 32897 ft | 566 kts | 104° |
| 2026-05-06 01:48 | 37.47779 | -89.30685 | 32887 ft | 567 kts | 104° |
| 2026-05-06 01:49 | 37.46183 | -89.20971 | 32889 ft | 568 kts | 104° |
| 2026-05-06 01:49 | 37.44574 | -89.11232 | 32889 ft | 567 kts | 104° |
| 2026-05-06 01:50 | 37.42964 | -89.01538 | 32886 ft | 567 kts | 104° |
| 2026-05-06 01:50 | 37.41342 | -88.91827 | 32873 ft | 567 kts | 104° |
| 2026-05-06 01:51 | 37.39712 | -88.82118 | 32850 ft | 567 kts | 104° |
| 2026-05-06 01:51 | 37.38072 | -88.72405 | 32870 ft | 568 kts | 104° |
| 2026-05-06 01:52 | 37.36428 | -88.62715 | 32867 ft | 568 kts | 104° |
| 2026-05-06 01:52 | 37.34771 | -88.53004 | 32858 ft | 567 kts | 104° |
| 2026-05-06 01:53 | 37.33110 | -88.43311 | 32865 ft | 567 kts | 104° |
| 2026-05-06 01:53 | 37.31448 | -88.33660 | 32851 ft | 563 kts | 104° |
| 2026-05-06 01:54 | 37.29786 | -88.24048 | 32843 ft | 563 kts | 104° |
| 2026-05-06 01:54 | 37.28117 | -88.14441 | 32836 ft | 563 kts | 104° |
| 2026-05-06 01:55 | 37.26466 | -88.04985 | 32348 ft | 553 kts | 104° |
| 2026-05-06 01:55 | 37.25642 | -88.00284 | 31702 ft | 551 kts | 104° |
| 2026-05-06 01:55 | 37.24807 | -87.95534 | 31063 ft | 548 kts | 104° |
| 2026-05-06 01:56 | 37.24002 | -87.90965 | 30512 ft | 539 kts | 104° |
| 2026-05-06 01:56 | 37.23188 | -87.86352 | 30007 ft | 531 kts | 104° |
| 2026-05-06 01:56 | 37.22403 | -87.81924 | 29422 ft | 524 kts | 104° |
| 2026-05-06 01:56 | 37.21620 | -87.77506 | 28864 ft | 516 kts | 104° |
| 2026-05-06 01:57 | 37.20653 | -87.73214 | 28188 ft | 506 kts | 116° |
| 2026-05-06 01:57 | 37.18960 | -87.69448 | 27645 ft | 488 kts | 131° |
| 2026-05-06 01:57 | 37.16953 | -87.66074 | 27239 ft | 481 kts | 132° |
| 2026-05-06 01:57 | 37.14944 | -87.62742 | 26741 ft | 477 kts | 133° |
| 2026-05-06 01:58 | 37.12935 | -87.59466 | 26204 ft | 471 kts | 133° |
| 2026-05-06 01:58 | 37.10935 | -87.56239 | 25707 ft | 467 kts | 133° |
| 2026-05-06 01:58 | 37.08947 | -87.53052 | 25222 ft | 462 kts | 133° |
| 2026-05-06 01:58 | 37.06984 | -87.49910 | 24728 ft | 457 kts | 133° |
| 2026-05-06 01:59 | 37.05031 | -87.46788 | 24247 ft | 453 kts | 133° |
| 2026-05-06 01:59 | 37.03099 | -87.43702 | 23777 ft | 448 kts | 133° |
| 2026-05-06 01:59 | 37.01182 | -87.40642 | 23290 ft | 444 kts | 134° |
| 2026-05-06 01:59 | 36.99284 | -87.37617 | 22752 ft | 440 kts | 134° |
| 2026-05-06 02:00 | 36.97401 | -87.34618 | 22291 ft | 436 kts | 134° |
| 2026-05-06 02:00 | 36.95536 | -87.31651 | 21818 ft | 432 kts | 133° |
| 2026-05-06 02:00 | 36.93683 | -87.28704 | 21401 ft | 430 kts | 133° |
| 2026-05-06 02:00 | 36.91845 | -87.25784 | 20973 ft | 426 kts | 133° |
| 2026-05-06 02:01 | 36.90021 | -87.22890 | 20555 ft | 423 kts | 133° |
| 2026-05-06 02:01 | 36.88231 | -87.20051 | 20135 ft | 419 kts | 133° |
| 2026-05-06 02:01 | 36.86433 | -87.17202 | 19697 ft | 415 kts | 133° |
| 2026-05-06 02:01 | 36.84649 | -87.14377 | 19303 ft | 412 kts | 133° |
| 2026-05-06 02:02 | 36.82864 | -87.11600 | 18819 ft | 406 kts | 138° |
| 2026-05-06 02:02 | 36.80723 | -87.09395 | 18036 ft | 394 kts | 157° |
| 2026-05-06 02:02 | 36.78333 | -87.07836 | 17339 ft | 384 kts | 159° |
| 2026-05-06 02:02 | 36.75973 | -87.06333 | 16683 ft | 377 kts | 160° |
| 2026-05-06 02:03 | 36.73658 | -87.04882 | 16017 ft | 371 kts | 160° |
| 2026-05-06 02:03 | 36.71362 | -87.03462 | 15337 ft | 366 kts | 160° |
| 2026-05-06 02:03 | 36.69086 | -87.02064 | 14638 ft | 363 kts | 160° |
| 2026-05-06 02:03 | 36.66828 | -87.00682 | 13963 ft | 360 kts | 160° |
| 2026-05-06 02:04 | 36.64579 | -86.99307 | 13137 ft | 360 kts | 160° |
| 2026-05-06 02:04 | 36.62360 | -86.97872 | 12328 ft | 363 kts | 152° |
| 2026-05-06 02:04 | 36.60527 | -86.95658 | 11536 ft | 376 kts | 129° |
| 2026-05-06 02:04 | 36.59478 | -86.92663 | 10849 ft | 381 kts | 110° |
| 2026-05-06 02:05 | 36.58694 | -86.89553 | 10234 ft | 373 kts | 113° |
| 2026-05-06 02:05 | 36.57873 | -86.86548 | 9897 ft | 359 kts | 114° |
| 2026-05-06 02:05 | 36.57080 | -86.83689 | 9611 ft | 344 kts | 114° |
| 2026-05-06 02:05 | 36.56311 | -86.80939 | 9189 ft | 325 kts | 115° |
| 2026-05-06 02:06 | 36.55589 | -86.78368 | 8720 ft | 304 kts | 115° |
| 2026-05-06 02:06 | 36.54923 | -86.75988 | 8311 ft | 280 kts | 115° |
| 2026-05-06 02:06 | 36.54341 | -86.73742 | 7755 ft | 267 kts | 115° |
| 2026-05-06 02:06 | 36.53782 | -86.71572 | 7141 ft | 259 kts | 115° |
| 2026-05-06 02:07 | 36.53238 | -86.69468 | 6617 ft | 250 kts | 116° |
| 2026-05-06 02:07 | 36.52727 | -86.67490 | 6642 ft | 238 kts | 116° |
| 2026-05-06 02:07 | 36.52228 | -86.65532 | 6767 ft | 232 kts | 116° |
| 2026-05-06 02:07 | 36.51696 | -86.63720 | 6735 ft | 217 kts | 124° |
| 2026-05-06 02:08 | 36.51007 | -86.62098 | 6617 ft | 207 kts | 134° |
| 2026-05-06 02:08 | 36.50163 | -86.60691 | 6503 ft | 200 kts | 143° |
| 2026-05-06 02:08 | 36.49192 | -86.59494 | 6372 ft | 193 kts | 152° |
| 2026-05-06 02:08 | 36.48147 | -86.58477 | 6239 ft | 189 kts | 157° |
| 2026-05-06 02:09 | 36.47058 | -86.57613 | 6118 ft | 183 kts | 163° |
| 2026-05-06 02:09 | 36.45949 | -86.56917 | 5985 ft | 178 kts | 169° |
| 2026-05-06 02:09 | 36.44794 | -86.56371 | 5815 ft | 174 kts | 174° |
| 2026-05-06 02:09 | 36.43653 | -86.55978 | 5676 ft | 171 kts | 179° |
| 2026-05-06 02:10 | 36.42498 | -86.55725 | 5597 ft | 167 kts | 184° |
| 2026-05-06 02:10 | 36.41352 | -86.55616 | 5480 ft | 164 kts | 188° |
| 2026-05-06 02:10 | 36.40224 | -86.55641 | 5365 ft | 161 kts | 193° |
| 2026-05-06 02:10 | 36.39122 | -86.55790 | 5274 ft | 158 kts | 198° |
| 2026-05-06 02:11 | 36.38052 | -86.56057 | 5156 ft | 155 kts | 202° |
| 2026-05-06 02:11 | 36.37030 | -86.56431 | 5047 ft | 151 kts | 205° |
| 2026-05-06 02:11 | 36.36032 | -86.56830 | 4897 ft | 151 kts | 205° |
| 2026-05-06 02:11 | 36.35027 | -86.57233 | 4745 ft | 152 kts | 205° |
| 2026-05-06 02:12 | 36.34013 | -86.57640 | 4636 ft | 154 kts | 205° |
| 2026-05-06 02:12 | 36.32995 | -86.58047 | 4487 ft | 153 kts | 204° |
| 2026-05-06 02:12 | 36.31995 | -86.58448 | 4307 ft | 150 kts | 204° |
| 2026-05-06 02:12 | 36.31013 | -86.58840 | 4120 ft | 147 kts | 203° |
| 2026-05-06 02:13 | 36.30043 | -86.59230 | 3967 ft | 146 kts | 202° |
| 2026-05-06 02:13 | 36.29088 | -86.59615 | 3750 ft | 138 kts | 202° |
| 2026-05-06 02:13 | 36.28213 | -86.59965 | 3591 ft | 129 kts | 201° |
| 2026-05-06 02:13 | 36.27366 | -86.60306 | 3393 ft | 127 kts | 200° |
| 2026-05-06 02:14 | 36.26524 | -86.60644 | 3227 ft | 127 kts | 199° |
| 2026-05-06 02:14 | 36.25691 | -86.60980 | 3084 ft | 124 kts | 200° |
| 2026-05-06 02:14 | 36.24876 | -86.61308 | 2988 ft | 123 kts | 200° |
| 2026-05-06 02:14 | 36.24070 | -86.61633 | 2799 ft | 123 kts | 199° |
| 2026-05-06 02:15 | 36.23253 | -86.61962 | 2606 ft | 123 kts | 198° |
| 2026-05-06 02:15 | 36.22439 | -86.62289 | 2429 ft | 123 kts | 197° |
| 2026-05-06 02:15 | 36.21631 | -86.62613 | 2311 ft | 121 kts | 197° |
| 2026-05-06 02:15 | 36.20830 | -86.62934 | 2096 ft | 123 kts | 197° |
| 2026-05-06 02:16 | 36.20011 | -86.63264 | 1968 ft | 125 kts | 197° |
| 2026-05-06 02:16 | 36.19177 | -86.63598 | 1801 ft | 126 kts | 195° |
| 2026-05-06 02:16 | 36.18345 | -86.63932 | 1600 ft | 126 kts | 195° |
| 2026-05-06 02:16 | 36.17487 | -86.64254 | 1361 ft | 131 kts | 197° |
| 2026-05-06 02:17 | 36.16600 | -86.64653 | 1178 ft | 138 kts | 195° |
| 2026-05-06 02:17 | 36.15676 | -86.65017 | 992 ft | 142 kts | 194° |
| 2026-05-06 02:17 | 36.14727 | -86.65379 | 837 ft | 144 kts | 197° |
| 2026-05-06 02:17 | 36.13774 | -86.65767 | 692 ft | 143 kts | 199° |
| 2026-05-06 02:18 | 36.12875 | -86.66125 | 568 ft | 126 kts | 198° |
| 2026-05-06 02:18 | 36.12198 | -86.66397 | 580 ft | 82 kts | 198° |
| 2026-05-06 02:18 | 36.11809 | -86.66555 | 584 ft | 50 kts | 198° |
| 2026-05-06 02:18 | 36.11498 | -86.66678 | 592 ft | 38 kts | 198° |
| 2026-05-06 02:19 | 36.11391 | -86.66745 | 594 ft | 11 kts | 246° |
| 2026-05-06 02:19 | 36.11397 | -86.66817 | 595 ft | 8 kts | 295° |
| 2026-05-06 02:19 | 36.11411 | -86.66833 | 595 ft | 0 kts | 336° |
| 2026-05-06 02:20 | 36.11417 | -86.66835 | 595 ft | 3 kts | 345° |
| 2026-05-06 02:20 | 36.11469 | -86.66828 | 594 ft | 13 kts | 14° |
| 2026-05-06 02:20 | 36.11589 | -86.66783 | 590 ft | 21 kts | 18° |
| 2026-05-06 02:21 | 36.11729 | -86.66727 | 588 ft | 18 kts | 17° |
| 2026-05-06 02:21 | 36.11845 | -86.66681 | 583 ft | 18 kts | 18° |
| 2026-05-06 02:21 | 36.11965 | -86.66633 | 580 ft | 19 kts | 18° |
| 2026-05-06 02:21 | 36.12100 | -86.66580 | 575 ft | 18 kts | 18° |
| 2026-05-06 02:22 | 36.12199 | -86.66539 | 575 ft | 16 kts | 18° |
| 2026-05-06 02:22 | 36.12286 | -86.66571 | 571 ft | 15 kts | 296° |
| 2026-05-06 02:22 | 36.12325 | -86.66711 | 575 ft | 19 kts | 287° |
| 2026-05-06 02:22 | 36.12379 | -86.66864 | 575 ft | 17 kts | 305° |
| 2026-05-06 02:23 | 36.12450 | -86.66948 | 577 ft | 12 kts | 336° |
| 2026-05-06 02:23 | 36.12535 | -86.66920 | 578 ft | 14 kts | 28° |
| 2026-05-06 02:23 | 36.12624 | -86.66857 | 573 ft | 14 kts | 30° |
| 2026-05-06 02:23 | 36.12690 | -86.66792 | 574 ft | 10 kts | 56° |
| 2026-05-06 02:24 | 36.12695 | -86.66771 | 572 ft | 1 kts | 88° |
| 2026-05-06 02:24 | 36.12694 | -86.66754 | 574 ft | 4 kts | 99° |
| 2026-05-06 02:24 | 36.12688 | -86.66724 | 573 ft | 3 kts | 105° |
| 2026-05-06 02:24 | 36.12684 | -86.66707 | 572 ft | 3 kts | 105° |
| 2026-05-06 02:25 | 36.12681 | -86.66696 | 574 ft | 0 kts | 105° |